Terminal Aerodrome Forecast
Issued by NWS

Home | Current Version | Previous Version | Text Only | Print | Product List | Glossary On
Versions: 1 2 3 4 5 6 7 8 9 10 11 12
000
FTUS44 KOUN 201740
TAFLAW
TAF
KLAW 201740Z 2018/2118 16016G26KT P6SM SCT030 SCT150
      TEMPO 2018/2021 BKN150
     FM210800 15014KT P6SM OVC015
     FM211500 18015G24KT P6SM SCT025=

USA.gov is the U.S. government's official web portal to all federal, state and local government web resources and services.